createdAt,value
2022-10-17T00:01:30.670Z,8.31
2022-10-17T00:16:34.150Z,8.38
2022-10-17T00:31:35.854Z,9.42
2022-10-17T00:46:38.989Z,9.22
2022-10-17T01:01:46.391Z,8.67
2022-10-17T01:17:11.126Z,8.23
2022-10-17T01:32:12.556Z,6.98
2022-10-17T01:47:17.597Z,7.00
2022-10-17T02:02:19.925Z,8.04
2022-10-17T02:17:35.452Z,6.89
2022-10-17T02:32:40.287Z,6.77
2022-10-17T02:47:54.305Z,6.87
2022-10-17T03:02:55.942Z,6.64
2022-10-17T03:17:57.434Z,7.64
2022-10-17T03:32:59.108Z,8.06
2022-10-17T03:48:00.566Z,8.18
2022-10-17T04:03:02.168Z,7.21
2022-10-17T04:18:06.607Z,6.11
2022-10-17T04:33:08.085Z,7.67
2022-10-17T04:48:09.920Z,5.86
2022-10-17T05:03:11.618Z,7.83
2022-10-17T05:18:13.116Z,8.90
2022-10-17T05:33:14.655Z,12.96
2022-10-17T05:48:16.150Z,12.93
2022-10-17T06:03:17.636Z,14.20
2022-10-17T06:18:19.272Z,14.17
2022-10-17T06:33:21.568Z,14.51
2022-10-17T06:48:23.039Z,13.78
2022-10-17T07:03:24.502Z,17.16
2022-10-17T07:18:25.987Z,14.84
2022-10-17T07:33:27.461Z,16.15
2022-10-17T07:48:28.951Z,15.89
2022-10-17T08:03:30.457Z,15.23
2022-10-17T08:18:31.926Z,16.89
2022-10-17T08:33:33.578Z,18.89
2022-10-17T08:48:42.739Z,18.05
2022-10-17T09:03:58.164Z,18.39
2022-10-17T09:19:21.412Z,20.03
2022-10-17T09:34:26.788Z,17.57
2022-10-17T09:49:33.820Z,17.75
2022-10-17T10:04:41.574Z,17.76
2022-10-17T10:19:56.773Z,17.65
2022-10-17T10:34:58.196Z,18.59
2022-10-17T10:50:24.295Z,17.86
2022-10-17T11:05:28.748Z,18.06
2022-10-17T11:20:30.189Z,19.31
2022-10-17T11:35:40.473Z,19.29
2022-10-17T12:06:13.670Z,18.32
2022-10-17T12:21:15.546Z,18.54
2022-10-17T12:36:17.199Z,18.67
2022-10-17T12:51:35.192Z,18.60
2022-10-17T13:06:40.422Z,18.52
2022-10-17T13:22:06.038Z,18.29
2022-10-17T13:37:12.457Z,18.34
2022-10-17T13:52:21.660Z,18.18
2022-10-17T14:07:26.578Z,17.88
2022-10-17T14:22:28.801Z,16.71
2022-10-17T14:37:36.157Z,16.37
2022-10-17T14:52:39.055Z,14.85
2022-10-17T15:07:41.122Z,14.68
2022-10-17T15:22:42.713Z,14.26
2022-10-17T15:37:46.694Z,15.19
2022-10-17T15:52:51.075Z,15.36
2022-10-17T16:07:53.464Z,13.39
2022-10-17T16:22:59.933Z,12.54
2022-10-17T16:38:01.495Z,12.78
2022-10-17T16:53:04.004Z,12.70
2022-10-17T17:08:07.963Z,12.96
2022-10-17T17:23:15.919Z,13.66
2022-10-17T17:38:17.638Z,14.02
2022-10-17T17:53:19.462Z,14.28
2022-10-17T18:08:20.923Z,14.35
2022-10-17T18:23:22.781Z,14.06
2022-10-17T18:38:24.288Z,14.30
2022-10-17T18:53:25.892Z,13.96
2022-10-17T19:08:27.350Z,14.28
2022-10-17T19:23:30.499Z,13.89
2022-10-17T19:38:32.673Z,13.08
2022-10-17T19:53:34.749Z,12.02
2022-10-17T20:08:37.279Z,10.27
2022-10-17T20:23:39.366Z,12.44
2022-10-17T20:38:40.856Z,9.98
2022-10-17T20:53:42.363Z,9.92
2022-10-17T21:08:44.434Z,9.95
2022-10-17T21:23:46.638Z,9.71
2022-10-17T21:38:48.889Z,9.47
2022-10-17T21:53:51.450Z,9.70
2022-10-17T22:16:10.234Z,9.35
2022-10-17T22:31:11.712Z,8.55
2022-10-17T22:46:14.205Z,9.65
2022-10-17T23:01:17.098Z,8.82
2022-10-17T23:16:18.695Z,9.52
2022-10-17T23:31:21.045Z,8.04
2022-10-17T23:46:22.507Z,7.97
